KGVL/GVL METAR and TAF weather

Enter ICAO airport designator
Station Type Date Time Source
KGVL METAR 2020/01/23 05:53 UTC NOAA

KGVL 230553Z AUTO 09008KT 10SM FEW050 03/M08 A3031 RMK AO2 SLP268 T00281083 10044 20028 58002


Station Type Date Time Source
KGVL Decoded METAR 2020/01/23 05:53 UTC NOAA

GILMER MEMORIAL AIRPORT, GA, United States (KGVL) 34-16N 83-50W 386M
Jan 23, 2020 - 12:53 AM EST / 2020.01.23 0553 UTC
Wind: from the E (090 degrees) at 9 MPH (8 KT):0
Visibility: 10 mile(s):0
Sky conditions: mostly clear
Temperature: 37.0 F (2.8 C)
Dew Point: 17.1 F (-8.3 C)
Relative Humidity: 43%
Pressure (altimeter): 30.31 in. Hg (1026 hPa)
Pressure tendency: 0.01 inches (0.2 hPa) lower than three hours ago
ob: KGVL 230553Z AUTO 09008KT 10SM FEW050 03/M08 A3031 RMK AO2 SLP268 T00281083 10044 20028 58002
cycle: 6

Station Type Date Time Source
KGVL TAF UTC NOAA

Error!

Example: see airport list